Ashmore, Illinois
Current Conditions -  °F | °C
As of 12:53 AM on Sunday 21 Dec 2014 (Local Time) from KMTO Reporting Station
Overcast Overcast  
Wind Chill: 23°   Ceiling: 3100
Heat Index: 31°   Visibility: 8mi
Dew Point: 26°   Wind: 8mph
Humidity: 82%   Direction: 160°SSE
Pressure: 30.25"   Gusts: NA
Location:  39.53°N, 88.02°W
Report Text: KMTO 210653Z AUTO 16007KT 8SM OVC031 M01/M03 A3025 RMK AO2 SLP251 T10061033
Loading
Personal Weather Stations






























Interactive Weather Map New forecast layout! Learn more

10-Day Weather Forecast

Advertisements
Track Severe Weather on mobile